Aérodrome :
LOGIN :

S'inscrire | Disclaimer

   EN    FR    IT 

 










Légende :    VFR   VFR Marginal   IFR   IFR Intensif   IFR Très Intensif
Visi : 
Plafond : 
>= 8 km
>= 3000ft
5 à 8 km
1000 à 3000 ft
1500m à 5 km
500 à 1000 ft
800 à 1500m
200 à 500 ft
< 800m
< 200 ft
Symboles :   Orages  Brouillard  Fortes neiges  Fortes précipitations  Vent > 20 kt
SIGMETs :   Divers  Orages  Givrage  Turbulence  Onde Orograph.  Cendres Volcan.






- Altitude de l'aérodrome : 699 ft
- Code IATA : PAD


EDLP - Paderborn Lippstadt

DERNIER METAR :
  • 150820Z 23017KT 9999 FEW036 06/03 Q0996

METARs EXPIRÉS :
  • 150750Z 25017G27KT 220V280 9999 -SHRA FEW020 BKN027 06/04 Q0996 RESHRA
  • 150720Z 23024G49KT 200V290 6000 SHRA BKN024TCU 07/05 Q0995
  • 150650Z 21018KT 9999 SCT032 09/06 Q0992
  • 150620Z 20016KT 9999 -RA BKN038 08/06 Q0992
  • 150550Z 20017KT 9999 -RA FEW044 09/06 Q0992
  • 150520Z 20015KT 9999 FEW042 09/05 Q0992

TAF AMD TAF EDLP
Valide du 15 à 07h jusqu'au 16 à 06h UTC


150702Z 1507/1606 17013KT 9999 BKN030
BECMG 1507/1508 22015G25KT
TEMPO 1507/1508 25025G45KT 4000 SHRA BKN014TCU
TEMPO 1509/1514 24020G35KT
BECMG 1514/1517 19010KT



MET'MAP, la Météo Aéronautique d'un coup d'oeil ! - Copyright ORBIFLY Décembre 2007 - Disclaimer

ORBIFLY MET'MAP TEAM :

Programmation & Développement : Alexandra Zaïnal
Sur une idée originale de : Baudouin d'Aumeries
Assistance à la programmation : Marc-Olivier Méhu
Soutien technique & logistique : Manuel Goepfert

Contact : metmap@orbifly.com




SOURCES & CREDITS :

   NOAA